Weather forecast for Bozoy (Бозой)

Russia, 588 m
N53.011, E104.880


Sounding

Red line — air temperature ˚C.
Blue line — thermal bubble temperature ˚C.
Green line — dew point temperature ˚C.
Wind speed is in meters per second.

Table forecast

GFS 0.25˚ model

temp. wind gust humid. clouds prec. press. hpbl
Mon20 00:00 7 22.0 nne 1 1 28 1 0.0 1018 22
03:00 5 64.0 ene 1 1 31 0 0.0 1018 22
06:00 4 69.0 ene 2 2 34 1 0.0 1017 22
09:00 9 94.0 e 2 3 29 1 0.0 1016 257
12:00 16 168.0 sse 2 2 22 0 0.0 1014 944
15:00 19 243.0 wsw 2 3 20 0 0.0 1012 1836
18:00 21 273.0 w 2 3 19 0 0.0 1010 2029
21:00 18 173.0 s 1 1 30 3 0.0 1010 23
 
Tue21 00:00 11 115.0 ese 2 3 36 67 0.0 1011 25
03:00 9 95.0 e 2 3 33 84 0.0 1010 45
06:00 10 84.0 e 1 2 31 100 0.0 1010 22
09:00 11 126.0 se 2 5 36 100 0.0 1010 223
12:00 18 206.0 ssw 3 4 34 68 0.0 1007 606
15:00 23 225.0 sw 3 4 30 52 0.0 1004 1542
18:00 24 225.0 sw 3 4 26 41 0.0 1001 1838
21:00 20 142.0 se 3 4 35 52 0.0 1000 67
 
Wed22 00:00 14 102.0 ese 2 3 41 100 0.0 1000 24
03:00 12 77.0 ene 2 2 41 100 0.0 999 22
06:00 11 337.0 nnw 2 2 47 98 0.0 1001 22
09:00 17 11.0 n 4 8 51 99 0.0 1003 845
12:00 20 333.0 nnw 3 3 41 100 0.0 1002 1551
15:00 23 305.0 nw 1 2 34 97 0.0 1000 1864
18:00 22 300.0 wnw 2 2 32 98 0.0 998 1667
21:00 20 338.0 nnw 3 5 40 96 0.0 1000 100
 
Thu23 00:00 15 26.0 nne 4 9 51 100 0.0 1001 350
03:00 12 34.0 ne 4 9 73 100 0.5 1002 405
06:00 9 37.0 ne 6 11 67 100 0.4 1005 562
09:00 9 6.0 n 4 7 66 100 0.6 1007 811
12:00 9 337.0 nnw 4 5 74 100 1.7 1009 664
15:00 10 325.0 nw 5 7 67 100 2.5 1010 938
18:00 11 286.0 wnw 5 6 64 100 0.5 1011 953
21:00 9 262.0 w 4 7 73 100 0.8 1012 628
 
Fri24 00:00 5 253.0 wsw 2 3 95 7 0.0 1014 62
03:00 3 254.0 wsw 1 1 94 4 0.0 1015 22
06:00 2 149.0 sse 1 1 93 0 0.0 1015 22
09:00 8 275.0 w 0 1 69 3 0.0 1015 259
12:00 13 258.0 wsw 2 2 44 86 0.0 1014 1087
15:00 15 285.0 wnw 3 3 37 93 0.0 1013 1680
18:00 14 339.0 nnw 4 5 43 100 0.1 1013 1510
21:00 10 319.0 nw 1 1 62 100 0.4 1015 22
 

0.015 s